Airfield :
LOGIN :

Register | Disclaimer

   EN    FR    IT 

 










Legend :    VFR   Marginal VFR   IFR   Intensive IFR   Very Intensive IFR
Visi :
Ceiling :
>= 8 km
>= 3000ft
5 to 8 km
1000 to 3000 ft
1500m to 5 km
500 to 1000 ft
800 to 1500m
200 to 500 ft
< 800m
< 200 ft
Symbols :   Thunderstorms  Fog  Heavy snow  Heavy precipitations  Wind > 20 kt
SIGMETs :     Misc.  Thunderstorms  Icing  Turbulence  Mountain Waves  Volcanic Ashes






- Airport Elevation : 659 ft
- IATA code : LYN


LFLY - Lyon Bron

CURRENT METAR :
  • 212330Z AUTO 17012KT 9999 -RA ///CB 10/06 Q1017 TEMPO RA BKN014 BECMG 18015G30KT

EXPIRED METARs :
  • 212300Z AUTO 17010KT 9999 -RA ///CB 11/06 Q1017 TEMPO 4000 RA BKN040 BECMG 18015G30KT
  • 212230Z AUTO 18012KT 9999 -RA //////TCU 12/05 Q1017 TEMPO 4000 RA BKN040 BECMG 18015G30KT
  • 212200Z AUTO 18011KT 9999 -RA ///TCU 13/05 Q1017 TEMPO 4000 RA BKN040 BECMG 18015G30KT
  • 212130Z AUTO 18011KT 9999 -RA ///TCU 14/04 Q1017 TEMPO 4000 RA BKN040 BECMG 18015G30KT
  • 212100Z AUTO 19012KT CAVOK 14/03 Q1017 TEMPO 4000 RA BECMG 18015G30KT
  • 212030Z AUTO 20012KT CAVOK 14/03 Q1017 TEMPO 4000 RA BECMG 18015G30KT
  • 212000Z AUTO 18014KT CAVOK 14/02 Q1017 TEMPO 4000 RA BECMG 18015G30KT
  • 211930Z AUTO 18015KT CAVOK 15/02 Q1017 TEMPO 4000 RA BECMG 18015G30KT
  • 211900Z AUTO 18014KT CAVOK 15/01 Q1017 TEMPO 4000 RA BECMG 18015G30KT

TAF TAF LFLY
Valid from the 22 at 00:00 until the 23 at 00:00 UTC


212300Z 2200/2224 18015G30KT 9999 BKN045
TEMPO 2200/2209 5000 RA BKN014
BECMG 2209/2211 18025G40KT
TEMPO 2211/2218 18035G50KT
TEMPO 2218/2220 27020G45KT 3000 +RA SCT020CB OVC030
BECMG 2220/2221 VRB07KT
ATIS : +33 4 72 15 87 96



MET'MAP, your aeronautical weather chart ! - Copyright ORBIFLY December 2007 - Disclaimer

ORBIFLY MET'MAP TEAM :

Programming & Development : Alexandra Zaïnal
Original concept : Baudouin d'Aumeries
Technical & hardware support : Manuel Goepfert
Assistance : Marc-Olivier Méhu




SOURCES & CREDITS :

   NOAA